釜山 の空港の天気 - METARとTAF

金海国際空港 ( RKPK / PUS ) - 韓国 釜山広域市
飛行場実況気象(Metar)
観測時間01/29 17:00 KST (01/29 08:00 UTC)
風向・風速北北西 5m/s
視程10km以上
天気現象
なし
気温7℃
湿度5%
気圧1017hPa
METARRKPK 290800Z 33010KT CAVOK 07/M31 Q1017
過去の天気等 Google飛行場航空写真 Wunderground天気予報

過去48時間のMETAR

飛行場予報(TAF)
発表時間: 1/29 14:00 KST (1/29 05:00 UTC)
予報対象時間: 29日15時 KST ~ 30日21時 KST
風向・風速北北西 4m/s
視程10km以上
全天の4割程度の雲 雲底高度 910m
全天の8割程度の雲 雲底高度 6100m
TAF RKPK 290500Z 2906/3012 33008KT 9999 SCT030 BKN200 TN00/2921Z TX08/3006Z